Time;durP1;ratioP1;P1;durP2;ratioP2;P2;SDS_P1;SDS_P2;PMS_P1;PMS_P2;Temp;Humidity;BMP_temperature;BMP_pressure;BME280_temperature;BME280_humidity;BME280_pressure;Samples;Min_cycle;Max_cycle;Signal;HPM_P1;HPM_P2
2023/06/19 00:02:22;;;;;;;2.73;2.33;;;22.50;98.90;;;22.43;46.98;100483.69;4908243;28;97847;-61
2023/06/19 00:04:48;;;;;;;2.67;2.03;;;22.40;98.80;;;22.44;46.76;100477.31;4910189;28;98457;-60
2023/06/19 00:07:13;;;;;;;3.47;2.43;;;22.40;98.80;;;22.46;47.15;100476.19;4899368;28;117845;-60
2023/06/19 00:09:39;;;;;;;2.67;2.43;;;22.40;98.90;;;22.53;48.57;100489.91;4897242;28;114196;-61
2023/06/19 00:12:05;;;;;;;4.10;2.57;;;22.50;99.90;;;22.55;47.73;100487.94;4915227;28;107491;-61
2023/06/19 00:14:32;;;;;;;3.27;2.27;;;22.50;99.90;;;22.48;47.41;100497.56;4889070;28;102706;-60
2023/06/19 00:17:00;;;;;;;2.90;2.20;;;22.50;99.30;;;22.44;47.28;100477.31;4911837;28;97969;-61
2023/06/19 00:19:26;;;;;;;3.03;2.10;;;22.40;99.10;;;22.36;47.15;100479.81;4910583;28;97436;-60
2023/06/19 00:21:56;;;;;;;3.93;2.07;;;22.40;99.10;;;22.30;47.42;100475.84;4912217;28;104415;-60
2023/06/19 00:24:23;;;;;;;3.23;2.37;;;22.30;99.10;;;22.22;47.59;100473.81;4915976;28;97517;-59
2023/06/19 00:26:49;;;;;;;2.67;2.10;;;22.30;99.20;;;22.20;47.79;100481.16;4908891;28;102291;-60
2023/06/19 00:29:15;;;;;;;3.23;2.27;;;22.30;99.30;;;22.20;47.56;100491.91;4920246;28;99539;-59
2023/06/19 00:31:40;;;;;;;3.20;1.97;;;22.20;99.30;;;22.27;47.68;100481.47;4913704;28;101201;-59
2023/06/19 00:34:06;;;;;;;2.73;1.80;;;22.30;99.30;;;22.25;47.43;100480.75;4917966;28;97755;-60
2023/06/19 00:36:32;;;;;;;2.47;1.77;;;22.30;99.30;;;22.28;47.53;100488.56;4928772;28;98155;-59
2023/06/19 00:38:58;;;;;;;3.17;2.23;;;22.30;99.30;;;22.32;47.61;100495.34;4910849;28;107078;-59
2023/06/19 00:41:26;;;;;;;2.27;2.00;;;22.30;99.30;;;22.36;47.33;100495.94;4900940;28;97354;-62
2023/06/19 00:43:54;;;;;;;2.90;2.20;;;22.30;99.20;;;22.37;47.49;100489.56;4893057;28;97560;-62
2023/06/19 00:46:19;;;;;;;4.43;2.50;;;22.30;99.30;;;22.46;53.85;100502.22;4909313;28;103254;-61
2023/06/19 00:48:45;;;;;;;2.57;2.00;;;22.40;99.90;;;22.49;52.48;100507.31;4919355;28;109482;-61
2023/06/19 00:51:11;;;;;;;4.10;2.70;;;22.50;99.90;;;22.48;48.10;100500.25;4889145;28;97776;-60
2023/06/19 00:53:37;;;;;;;3.07;2.43;;;22.40;99.90;;;22.56;55.15;100514.69;4881751;28;111042;-61
2023/06/19 00:56:04;;;;;;;4.67;2.60;;;22.50;99.90;;;22.56;48.66;100521.91;4894211;28;117021;-61
2023/06/19 00:58:29;;;;;;;2.47;2.07;;;22.50;99.90;;;22.52;48.06;100517.78;4909249;28;97258;-60
2023/06/19 01:00:57;;;;;;;3.50;2.53;;;22.50;99.90;;;22.56;50.45;100519.22;4916529;28;103168;-60
2023/06/19 01:03:22;;;;;;;2.70;2.00;;;22.50;99.90;;;22.55;49.43;100522.88;4919335;28;107584;-63
2023/06/19 01:05:51;;;;;;;4.73;2.33;;;22.50;99.90;;;22.55;47.61;100517.50;4899820;28;100858;-61
2023/06/19 01:08:48;;;;;;;3.63;2.13;;;22.50;99.90;;;22.56;49.91;100527.28;4890432;28;126778;-61
2023/06/19 01:11:21;;;;;;;5.17;2.73;;;22.50;99.90;;;22.53;47.33;100522.19;4889745;28;97474;-61
2023/06/19 01:14:00;;;;;;;3.07;2.10;;;22.50;99.90;;;22.49;47.72;100523.44;4895876;28;97179;-60
2023/06/19 01:16:30;;;;;;;2.83;2.17;;;22.40;99.90;;;22.48;48.28;100524.44;4896950;28;101417;-60
2023/06/19 01:18:56;;;;;;;2.53;2.10;;;22.40;99.90;;;22.46;47.25;100512.97;4894819;28;97109;-60
2023/06/19 01:21:22;;;;;;;2.83;2.27;;;22.40;99.60;;;22.41;47.23;100516.03;4918154;28;97235;-62
2023/06/19 01:23:48;;;;;;;2.70;2.30;;;22.40;99.50;;;22.46;47.66;100518.34;4897368;28;101775;-59
2023/06/19 01:26:16;;;;;;;3.30;1.77;;;22.40;99.80;;;22.44;47.26;100514.94;4880178;28;98809;-61
2023/06/19 01:28:44;;;;;;;4.60;2.80;;;22.40;99.50;;;22.47;51.01;100510.13;4897231;28;96728;-56
2023/06/19 01:31:20;;;;;;;4.77;2.93;;;22.40;99.90;;;22.53;53.05;100516.81;4896675;28;97545;-59
2023/06/19 01:33:50;;;;;;;3.60;2.83;;;22.50;99.90;;;22.54;53.78;100515.81;4904183;28;97174;-61
2023/06/19 01:36:19;;;;;;;3.63;3.03;;;22.50;99.90;;;22.53;47.66;100508.75;4890704;28;98167;-57
2023/06/19 01:38:47;;;;;;;3.13;2.10;;;22.50;99.90;;;22.55;51.43;100512.13;4913540;28;97886;-59
2023/06/19 01:41:15;;;;;;;3.13;2.17;;;22.50;99.90;;;22.52;47.55;100512.41;4886863;28;97261;-61
2023/06/19 01:43:42;;;;;;;4.23;2.60;;;22.50;99.90;;;22.53;47.83;100514.13;4901096;28;97485;-61
2023/06/19 01:46:08;;;;;;;2.93;2.30;;;22.50;99.90;;;22.51;47.84;100524.16;4900888;28;104288;-58
2023/06/19 01:48:36;;;;;;;2.67;2.23;;;22.50;99.90;;;22.50;47.31;100527.81;4909535;28;108150;-60
2023/06/19 01:51:03;;;;;;;2.67;1.87;;;22.50;99.90;;;22.44;47.26;100514.94;4890888;28;102406;-60
2023/06/19 01:53:31;;;;;;;2.57;2.03;;;22.40;99.70;;;22.45;47.22;100519.31;4888395;28;97292;-58
2023/06/19 01:56:00;;;;;;;2.43;1.90;;;22.40;99.90;;;22.44;47.24;100520.31;4917786;28;97480;-58
2023/06/19 01:58:26;;;;;;;3.00;2.03;;;22.40;99.60;;;22.40;47.48;100514.34;4886156;28;98995;-58
2023/06/19 02:00:52;;;;;;;2.90;2.03;;;22.40;99.80;;;22.40;47.47;100518.84;4894758;28;100031;-61
2023/06/19 02:03:18;;;;;;;2.57;2.20;;;22.40;99.70;;;22.42;47.13;100530.31;4900373;28;99372;-59
2023/06/19 02:05:45;;;;;;;2.37;1.90;;;22.40;99.60;;;22.39;47.15;100520.69;4895568;28;100954;-61
2023/06/19 02:08:11;;;;;;;3.30;2.50;;;22.30;99.60;;;22.42;47.45;100533.00;4917062;28;99615;-60
2023/06/19 02:10:36;;;;;;;4.40;3.03;;;22.40;99.80;;;22.49;53.08;100544.94;4910654;28;103879;-60
2023/06/19 02:13:02;;;;;;;4.27;3.40;;;22.40;99.90;;;22.51;53.98;100538.44;4900689;28;98294;-59
2023/06/19 02:15:28;;;;;;;2.50;1.97;;;22.40;99.90;;;22.47;47.81;100546.91;4892423;28;101910;-59
2023/06/19 02:17:56;;;;;;;3.63;2.83;;;22.40;99.90;;;22.48;47.72;100548.63;4899648;28;97682;-61
2023/06/19 02:20:25;;;;;;;6.30;2.10;;;22.40;99.90;;;22.48;47.52;100549.47;4889316;28;99523;-60
2023/06/19 02:22:51;;;;;;;4.53;2.63;;;22.40;99.90;;;22.46;47.75;100555.97;4909692;28;97162;-60
2023/06/19 02:25:18;;;;;;;4.27;3.27;;;22.40;99.90;;;22.46;47.72;100566.72;4908671;28;100362;-60
2023/06/19 02:27:44;;;;;;;2.33;1.73;;;22.40;99.90;;;22.42;47.51;100559.88;4903274;28;98901;-59
2023/06/19 02:30:10;;;;;;;2.23;1.80;;;22.40;99.80;;;22.44;47.29;100574.91;4909537;28;99714;-59
2023/06/19 02:32:36;;;;;;;4.53;3.10;;;22.40;99.80;;;22.47;47.97;100579.16;4897372;28;97505;-60
2023/06/19 02:35:02;;;;;;;3.33;2.10;;;22.40;99.90;;;22.46;47.46;100580.16;4900378;28;109957;-60
2023/06/19 02:37:29;;;;;;;1.70;1.60;;;22.40;99.90;;;22.44;47.26;100579.44;4909941;28;98810;-58
2023/06/19 02:39:55;;;;;;;2.80;2.00;;;22.40;99.80;;;22.46;47.38;100586.38;4904924;28;97733;-61
2023/06/19 02:42:21;;;;;;;2.10;1.73;;;22.40;99.80;;;22.42;47.39;100587.63;4918717;28;97500;-60
2023/06/19 02:44:46;;;;;;;2.37;2.03;;;22.40;99.70;;;22.38;47.30;100591.53;4884408;28;114374;-58
2023/06/19 02:47:12;;;;;;;2.93;2.60;;;22.40;99.70;;;22.44;48.29;100600.94;4920883;28;120675;-58
2023/06/19 02:49:38;;;;;;;4.97;3.50;;;22.40;99.90;;;22.45;50.61;100605.31;4913235;28;114816;-60
2023/06/19 02:52:05;;;;;;;3.60;2.77;;;22.40;99.90;;;22.42;47.30;100601.06;4903324;28;97530;-59
2023/06/19 03:11:06;;;;;;;3.03;2.35;;;22.40;99.80;;;23.21;45.99;100612.06;5892474;22;4117189;-58
2023/06/19 03:33:41;;;;;;;5.30;4.10;;;22.90;98.80;;;23.54;46.71;100642.31;5049377;27;97281;-61
2023/06/19 03:36:10;;;;;;;5.63;3.90;;;23.50;99.90;;;23.38;53.28;100651.78;5028743;27;96909;-61
2023/06/19 03:38:36;;;;;;;5.45;4.00;;;23.40;99.90;;;23.22;49.84;100656.81;5025694;27;97940;-59
2023/06/19 03:41:02;;;;;;;6.90;3.47;;;23.20;99.90;;;23.10;47.90;100664.13;5042032;27;97080;-60
2023/06/19 03:43:28;;;;;;;2.83;2.50;;;23.10;99.90;;;23.01;47.76;100661.41;5044582;27;98489;-59
2023/06/19 03:45:54;;;;;;;6.57;3.83;;;23.00;99.90;;;22.94;50.47;100674.53;5056972;27;97447;-62
2023/06/19 03:48:19;;;;;;;5.63;4.17;;;22.80;99.90;;;22.88;51.91;100685.00;5039566;27;100321;-59
2023/06/19 03:50:45;;;;;;;5.10;3.90;;;22.80;99.90;;;22.81;53.93;100685.47;5029905;27;103381;-60
2023/06/19 03:53:11;;;;;;;4.00;3.13;;;22.70;99.90;;;22.73;50.43;100692.50;5045808;27;101288;-59
2023/06/19 03:55:37;;;;;;;7.00;2.57;;;22.60;99.90;;;22.69;50.55;100691.03;5047543;27;97292;-60
2023/06/19 03:58:03;;;;;;;4.87;2.97;;;22.60;99.90;;;22.67;51.87;100693.88;5043616;27;98393;-60
2023/06/19 04:00:29;;;;;;;2.93;2.37;;;22.60;99.90;;;22.56;52.40;100693.94;5045236;27;98168;-59
2023/06/19 04:02:55;;;;;;;3.13;2.27;;;22.50;99.90;;;22.54;52.29;100703.97;5042113;27;97373;-61
2023/06/19 04:05:21;;;;;;;3.63;2.07;;;22.50;99.90;;;22.53;51.15;100713.00;5051607;27;97319;-60
2023/06/19 04:07:48;;;;;;;2.73;1.80;;;22.50;99.90;;;22.50;51.84;100718.66;5046814;27;97211;-59
2023/06/19 04:10:14;;;;;;;2.60;1.63;;;22.50;99.90;;;22.51;52.76;100720.34;5046738;27;102061;-59
2023/06/19 04:12:40;;;;;;;2.67;1.77;;;22.50;99.90;;;22.49;52.03;100722.31;5045302;27;101501;-59
2023/06/19 04:15:07;;;;;;;3.03;2.07;;;22.40;99.90;;;22.48;52.09;100728.69;5049091;27;104958;-60
2023/06/19 04:17:33;;;;;;;2.30;1.80;;;22.40;99.90;;;22.49;55.40;100733.94;5046497;27;97352;-60
2023/06/19 04:19:59;;;;;;;2.03;1.53;;;22.40;99.90;;;22.46;52.98;100734.19;5031475;27;97031;-59
2023/06/19 04:22:25;;;;;;;2.47;2.20;;;22.40;99.90;;;22.46;54.15;100744.09;5034206;27;97198;-62
2023/06/19 04:24:51;;;;;;;2.93;2.20;;;22.40;99.90;;;22.44;53.53;100740.69;5051276;27;96976;-59
2023/06/19 04:27:16;;;;;;;2.30;1.67;;;22.40;99.90;;;22.47;52.35;100745.78;5048721;27;97949;-60
2023/06/19 04:29:42;;;;;;;2.13;1.57;;;22.40;99.90;;;22.47;53.63;100748.47;5045779;27;104411;-59
2023/06/19 04:32:11;;;;;;;2.47;1.57;;;22.40;99.90;;;22.44;52.34;100751.44;5049102;27;97608;-60
2023/06/19 04:34:45;;;;;;;2.20;1.43;;;22.40;99.90;;;22.47;53.72;100759.22;5025992;27;97007;-60
2023/06/19 04:37:12;;;;;;;1.97;1.23;;;22.40;99.90;;;22.46;52.73;100752.16;5033245;27;97002;-60
2023/06/19 04:39:37;;;;;;;2.50;1.30;;;22.40;99.90;;;22.47;55.74;100756.53;5029416;27;97288;-61
2023/06/19 04:42:04;;;;;;;2.37;1.77;;;22.40;99.90;;;22.47;55.50;100751.16;5028082;27;98302;-61
2023/06/19 04:44:33;;;;;;;2.50;1.47;;;22.40;99.90;;;22.44;53.87;100756.81;5044020;27;103772;-60
2023/06/19 04:47:02;;;;;;;2.80;1.60;;;22.40;99.90;;;22.46;54.55;100755.69;5021225;27;97928;-59
2023/06/19 04:49:31;;;;;;;1.53;1.30;;;22.40;99.90;;;22.46;53.89;100755.69;4998175;22;97463;-60
2023/06/19 04:51:58;;;;;;;2.97;1.20;;;22.40;99.90;;;22.48;56.83;100763.63;4974868;27;100243;-60
2023/06/19 04:54:25;;;;;;;2.83;1.40;;;22.40;99.90;;;22.47;53.99;100761.91;4975280;28;105797;-62
2023/06/19 04:56:50;;;;;;;1.90;1.30;;;22.40;99.90;;;22.47;56.13;100767.28;4982195;28;101740;-59
2023/06/19 04:59:20;;;;;;;2.30;1.30;;;22.40;99.90;;;22.45;53.11;100764.75;4982187;28;100908;-60
2023/06/19 05:01:46;;;;;;;2.60;1.60;;;22.40;99.90;;;22.46;52.79;100760.22;4968678;28;97420;-58
2023/06/19 05:04:11;;;;;;;4.37;1.23;;;22.40;99.90;;;22.48;54.82;100763.63;4981141;28;97230;-57
2023/06/19 05:06:37;;;;;;;1.60;1.00;;;22.40;99.90;;;22.49;55.61;100770.69;4978985;28;97276;-59
2023/06/19 05:09:04;;;;;;;3.03;1.40;;;22.40;99.90;;;22.48;57.29;100769.84;4972069;27;107932;-59
2023/06/19 05:11:29;;;;;;;1.67;1.30;;;22.40;99.90;;;22.47;52.36;100768.16;4979924;28;99298;-59
2023/06/19 05:13:55;;;;;;;2.33;1.20;;;22.40;99.90;;;22.50;55.85;100769.72;4963439;28;97102;-58
2023/06/19 05:16:22;;;;;;;1.67;1.30;;;22.40;99.90;;;22.51;57.69;100779.47;4957007;28;98790;-59
2023/06/19 05:18:49;;;;;;;3.10;1.30;;;22.40;99.90;;;22.49;51.85;100778.75;4950346;27;101739;-58
2023/06/19 05:21:15;;;;;;;1.90;1.50;;;22.40;99.90;;;22.49;51.88;100781.44;4960940;27;97598;-55
2023/06/19 05:23:41;;;;;;;1.70;1.13;;;22.40;99.90;;;22.51;52.63;100790.22;4965424;28;97267;-58
2023/06/19 05:26:06;;;;;;;1.80;1.40;;;22.40;99.90;;;22.52;55.12;100786.56;4977666;28;97608;-55
2023/06/19 05:28:32;;;;;;;1.73;1.30;;;22.40;99.90;;;22.48;52.43;100783.28;4968881;27;97144;-56
2023/06/19 05:30:58;;;;;;;1.90;1.47;;;22.40;99.90;;;22.50;57.36;100783.16;4967934;27;96904;-59
2023/06/19 05:33:24;;;;;;;1.80;1.30;;;22.40;99.90;;;22.52;58.20;100787.41;4974002;27;97113;-64
2023/06/19 05:35:53;;;;;;;2.20;1.50;;;22.50;99.90;;;22.51;53.45;100780.34;4962416;27;101078;-59
2023/06/19 05:38:25;;;;;;;2.03;1.10;;;22.40;99.90;;;22.52;54.78;100779.34;4975974;28;100497;-58
2023/06/19 05:40:51;;;;;;;3.13;1.40;;;22.40;99.90;;;22.49;53.41;100781.44;4970352;28;97376;-57
2023/06/19 05:43:18;;;;;;;2.20;1.30;;;22.40;99.90;;;22.53;57.21;100774.81;4972459;27;97306;-58
2023/06/19 05:45:44;;;;;;;2.10;1.33;;;22.50;99.90;;;22.52;52.19;100771.28;4954378;27;97489;-57
2023/06/19 05:48:10;;;;;;;1.83;1.30;;;22.50;99.90;;;22.54;57.14;100779.22;4962363;27;110594;-59
2023/06/19 05:50:36;;;;;;;1.83;1.17;;;22.50;99.90;;;22.49;52.20;100782.31;4966543;27;96548;-57
2023/06/19 05:53:01;;;;;;;1.90;1.23;;;22.40;99.90;;;22.52;53.15;100782.03;4965541;27;96979;-58
2023/06/19 05:55:27;;;;;;;3.00;1.40;;;22.50;99.90;;;22.51;53.28;100785.72;4972347;28;97164;-59
2023/06/19 05:57:55;;;;;;;1.30;1.10;;;22.50;99.90;;;22.50;55.67;100793.91;4972994;27;97405;-61
2023/06/19 06:00:21;;;;;;;1.70;1.10;;;22.50;99.90;;;22.51;56.37;100799.16;4972014;28;96866;-59
2023/06/19 06:02:46;;;;;;;1.40;0.80;;;22.50;99.90;;;22.47;53.59;100791.47;4974437;27;97158;-59
2023/06/19 06:05:12;;;;;;;0.77;0.60;;;22.50;99.90;;;22.51;52.58;100796.47;4974990;27;97688;-59
2023/06/19 06:07:38;;;;;;;2.43;1.00;;;22.50;99.90;;;22.44;52.26;100797.13;4961629;27;97273;-58
2023/06/19 06:10:05;;;;;;;1.60;0.90;;;22.50;99.90;;;22.49;52.80;100813.69;4965294;27;98769;-57
2023/06/19 06:12:33;;;;;;;0.87;0.57;;;22.50;99.90;;;22.46;52.36;100808.59;4959008;27;97203;-59
2023/06/19 06:14:59;;;;;;;1.67;0.90;;;22.50;99.90;;;22.50;52.83;100810.03;4965426;27;99842;-58
2023/06/19 06:17:25;;;;;;;1.20;0.77;;;22.50;99.90;;;22.58;53.44;100810.25;4962582;27;97409;-60
2023/06/19 06:19:51;;;;;;;1.13;0.63;;;22.50;99.90;;;22.57;52.95;100805.88;4969568;27;97554;-58
2023/06/19 06:22:18;;;;;;;1.57;0.70;;;22.50;99.90;;;22.62;55.39;100803.63;4966794;27;97504;-59
2023/06/19 06:24:44;;;;;;;1.57;0.80;;;22.60;99.90;;;22.65;53.25;100798.00;4958016;27;96925;-58
2023/06/19 06:27:10;;;;;;;1.03;0.90;;;22.60;99.90;;;22.60;52.06;100800.22;4956456;27;98177;-58
2023/06/19 06:29:37;;;;;;;1.20;0.70;;;22.60;99.90;;;22.68;53.54;100803.09;4958901;28;101536;-59
2023/06/19 06:32:07;;;;;;;0.90;0.67;;;22.70;99.90;;;22.69;53.31;100794.06;4963152;27;97678;-58
2023/06/19 06:34:36;;;;;;;0.83;0.50;;;22.70;99.90;;;22.73;52.09;100800.06;4962346;27;97924;-59
2023/06/19 06:37:02;;;;;;;2.03;0.80;;;22.70;99.90;;;22.72;53.38;100809.09;4967880;28;97184;-59
2023/06/19 06:39:28;;;;;;;0.70;0.50;;;22.70;99.90;;;22.72;53.78;100804.59;4969756;27;97301;-58
2023/06/19 06:41:53;;;;;;;0.73;0.57;;;22.70;99.90;;;22.78;54.37;100814.81;4965828;27;98420;-64
2023/06/19 06:44:19;;;;;;;1.00;0.60;;;22.70;99.90;;;22.79;53.71;100816.50;4971091;27;101034;-59
2023/06/19 06:46:45;;;;;;;1.20;1.00;;;22.80;99.90;;;22.75;51.45;100820.44;4971861;27;97437;-59
2023/06/19 06:49:12;;;;;;;0.80;0.50;;;22.70;99.90;;;22.71;53.75;100829.75;4972552;28;97286;-58
2023/06/19 06:51:37;;;;;;;1.17;0.60;;;22.70;99.90;;;22.74;54.35;100823.28;4976931;27;97061;-58
2023/06/19 06:54:03;;;;;;;1.40;0.83;;;22.70;99.90;;;22.74;53.17;100834.88;4964261;27;112189;-55
2023/06/19 06:56:30;;;;;;;1.03;0.67;;;22.70;99.90;;;22.75;51.83;100827.66;4963945;28;104222;-58
2023/06/19 06:58:55;;;;;;;1.03;0.63;;;22.70;99.90;;;22.72;52.93;100826.09;4967945;27;97379;-60
2023/06/19 07:01:21;;;;;;;1.20;0.77;;;22.70;99.90;;;22.67;52.00;100827.44;4971878;27;97210;-59
2023/06/19 07:03:47;;;;;;;0.83;0.80;;;22.70;99.90;;;22.69;53.93;100837.06;4972299;28;124806;-59
2023/06/19 07:06:13;;;;;;;0.97;0.67;;;22.70;99.90;;;22.70;52.62;100841.47;4964577;28;123456;-59
2023/06/19 07:08:40;;;;;;;1.70;0.70;;;22.70;99.90;;;22.71;53.19;100851.28;4962199;27;100097;-59
2023/06/19 07:11:07;;;;;;;1.83;0.90;;;22.70;99.90;;;22.62;52.06;100852.03;4971848;28;97363;-59
2023/06/19 07:13:33;;;;;;;0.87;0.60;;;22.70;99.90;;;22.65;53.25;100851.78;4964932;28;97339;-59
2023/06/19 07:16:01;;;;;;;1.47;0.60;;;22.70;99.90;;;22.56;52.31;100852.50;4968592;27;96903;-58
2023/06/19 07:18:27;;;;;;;2.40;0.70;;;22.60;99.90;;;22.61;52.62;100853.00;4978296;27;97476;-59
2023/06/19 07:20:53;;;;;;;0.63;0.40;;;22.60;99.90;;;22.64;53.48;100855.44;4969509;27;97496;-58
2023/06/19 07:23:19;;;;;;;1.27;0.60;;;22.60;99.90;;;22.65;52.64;100851.78;4973202;27;97096;-58
2023/06/19 07:25:47;;;;;;;1.80;0.53;;;22.70;99.90;;;22.68;53.08;100846.13;4965104;28;97706;-58
2023/06/19 07:28:13;;;;;;;0.60;0.50;;;22.70;99.90;;;22.73;54.49;100860.06;4975740;28;97554;-58
2023/06/19 07:35:35;;;;;;;1.10;0.70;;;22.70;99.90;;;22.78;53.38;100857.84;5025265;27;97053;-48
2023/06/19 07:38:01;;;;;;;2.20;0.60;;;22.80;99.90;;;22.78;52.60;100856.97;5040265;27;96940;-47
2023/06/19 07:40:27;;;;;;;2.10;0.70;;;22.80;99.90;;;22.79;52.27;100850.63;5041094;27;97337;-48
2023/06/19 07:42:53;;;;;;;0.60;0.53;;;22.80;99.90;;;22.77;52.80;100845.38;5052704;27;97942;-49
2023/06/19 07:45:18;;;;;;;1.13;0.73;;;22.80;99.90;;;22.80;53.89;100855.88;5047474;27;97589;-49
2023/06/19 07:47:53;;;;;;;1.37;0.93;;;22.80;99.90;;;22.78;53.90;100852.44;5056024;27;105844;-49
2023/06/19 07:50:19;;;;;;;1.03;0.67;;;22.80;99.90;;;22.73;52.22;100859.22;5044079;27;98244;-51
2023/06/19 07:52:45;;;;;;;1.17;0.87;;;22.80;99.90;;;22.75;52.84;100863.47;5045348;27;116451;-47
2023/06/19 07:55:11;;;;;;;2.13;0.70;;;22.80;99.90;;;22.81;54.02;100865.63;5048710;27;99672;-50
2023/06/19 07:57:37;;;;;;;1.03;0.63;;;22.80;99.90;;;22.82;53.68;100863.78;5045621;27;101456;-52
2023/06/19 08:00:10;;;;;;;1.63;0.73;;;22.80;99.90;;;22.83;52.44;100865.53;5056763;27;98278;-50
2023/06/19 08:02:37;;;;;;;1.63;0.70;;;22.90;99.90;;;22.84;53.04;100862.72;5045849;27;99992;-46
2023/06/19 08:05:03;;;;;;;1.13;0.80;;;22.90;99.90;;;22.87;53.65;100866.16;5057312;27;99008;-53
2023/06/19 08:07:29;;;;;;;2.30;1.53;;;22.80;99.90;;;22.88;55.54;100862.47;5045538;27;97354;-48
2023/06/19 08:09:55;;;;;;;1.40;0.90;;;22.90;99.90;;;22.85;56.02;100867.09;5043586;27;97554;-53
2023/06/19 08:12:20;;;;;;;0.77;0.70;;;22.90;99.90;;;22.91;54.70;100862.22;5053379;27;97244;-47
2023/06/19 08:14:46;;;;;;;2.70;0.80;;;22.90;99.90;;;22.88;53.39;100863.34;5051489;27;98645;-46
2023/06/19 08:17:12;;;;;;;0.70;0.70;;;22.90;99.90;;;22.94;55.60;100861.94;5050587;27;96808;-51
2023/06/19 08:19:39;;;;;;;4.93;1.10;;;23.00;99.90;;;22.94;53.25;100859.25;5055839;27;97465;-49
2023/06/19 08:22:05;;;;;;;1.73;0.80;;;23.00;99.90;;;22.93;53.03;100861.09;5026206;27;103730;-49
2023/06/19 08:24:31;;;;;;;1.80;0.87;;;23.00;99.90;;;22.97;53.88;100867.06;5048537;27;97200;-51
2023/06/19 08:26:57;;;;;;;1.07;0.90;;;23.00;99.90;;;22.96;55.82;100873.44;5056623;27;97459;-48
2023/06/19 08:29:23;;;;;;;2.20;0.90;;;23.00;99.90;;;22.92;53.63;100874.69;5052659;27;98682;-51
2023/06/19 08:31:49;;;;;;;1.53;0.93;;;23.00;99.90;;;22.88;53.36;100862.47;5051664;27;99557;-51
2023/06/19 08:34:15;;;;;;;1.27;1.03;;;22.90;99.90;;;22.93;53.36;100860.25;5051149;27;105367;-47
2023/06/19 08:36:40;;;;;;;1.40;0.80;;;23.00;99.90;;;22.94;53.42;100861.94;5023756;27;97330;-48
2023/06/19 08:39:08;;;;;;;0.87;0.77;;;23.00;99.90;;;22.98;55.85;100858.00;5053888;27;97639;-49
2023/06/19 08:41:37;;;;;;;1.00;0.60;;;23.00;99.90;;;22.98;56.34;100858.88;5050453;27;97863;-46
2023/06/19 08:44:04;;;;;;;2.17;1.10;;;23.00;99.90;;;23.07;56.53;100857.25;5046292;27;97415;-50
2023/06/19 08:46:30;;;;;;;1.13;0.93;;;23.10;99.90;;;23.07;54.85;100862.63;5051303;27;97041;-50
2023/06/19 08:48:56;;;;;;;1.13;0.77;;;23.10;99.90;;;23.08;53.25;100864.34;5053533;27;101197;-57
2023/06/19 08:51:22;;;;;;;1.43;1.10;;;23.10;99.90;;;23.09;53.52;100871.41;5055212;27;97414;-50
2023/06/19 08:53:55;;;;;;;1.57;1.10;;;23.10;99.90;;;23.10;53.83;100873.13;5050497;27;97419;-52
2023/06/19 08:56:21;;;;;;;1.07;0.93;;;23.10;99.90;;;23.14;54.74;100874.56;5051521;27;97495;-51
2023/06/19 08:58:47;;;;;;;1.50;1.20;;;23.20;99.90;;;23.09;53.33;100871.41;5054404;27;97553;-50
2023/06/19 09:01:19;;;;;;;1.73;1.27;;;23.20;99.90;;;23.06;53.50;100879.75;5045124;27;97418;-48
2023/06/19 09:03:46;;;;;;;1.70;1.10;;;23.10;99.90;;;23.09;53.71;100874.09;5046308;27;98660;-48
2023/06/19 09:06:18;;;;;;;1.50;1.40;;;23.10;99.90;;;23.11;53.06;100880.22;5021791;27;97417;-50
2023/06/19 09:08:44;;;;;;;3.07;1.57;;;23.20;99.90;;;23.19;52.36;100866.97;5022525;27;97248;-49
2023/06/19 09:11:12;;;;;;;1.17;1.07;;;23.20;99.90;;;23.17;53.09;100868.09;5026070;27;99025;-48
2023/06/19 09:13:38;;;;;;;3.03;1.53;;;23.30;99.90;;;23.10;52.18;100863.22;5027362;27;98412;-51
2023/06/19 09:16:07;;;;;;;3.97;1.53;;;23.20;99.90;;;23.26;53.48;100867.28;5026438;27;97580;-47
2023/06/19 09:19:02;;;;;;;2.87;1.70;;;23.30;99.90;;;23.34;53.77;100868.34;5019070;27;97464;-48
2023/06/19 09:21:28;;;;;;;1.63;1.43;;;23.40;99.90;;;23.22;51.95;100877.47;5018488;27;116558;-49
2023/06/19 09:23:54;;;;;;;1.93;1.60;;;23.30;99.90;;;23.12;51.88;100893.53;5034456;27;96970;-48
2023/06/19 09:26:20;;;;;;;1.77;1.30;;;23.30;99.90;;;23.21;53.41;100891.06;5034074;27;98839;-46
2023/06/19 09:28:46;;;;;;;2.10;1.60;;;23.30;99.90;;;23.33;54.10;100880.09;5037311;27;97601;-51
2023/06/19 09:31:13;;;;;;;2.97;1.93;;;23.40;99.90;;;23.34;52.27;100872.88;5061392;27;99873;-46
2023/06/19 09:33:40;;;;;;;2.07;1.40;;;23.40;99.90;;;23.28;52.35;100876.06;5062979;27;96978;-46
2023/06/19 09:36:06;;;;;;;4.23;1.83;;;23.40;99.90;;;23.37;53.25;100881.53;5060961;27;99673;-48
2023/06/19 09:38:38;;;;;;;1.80;1.40;;;23.40;99.90;;;23.36;51.68;100885.22;5056801;27;97365;-45
2023/06/19 09:41:05;;;;;;;1.80;1.53;;;23.50;99.90;;;23.31;51.87;100887.47;5057235;27;98760;-49
2023/06/19 09:43:38;;;;;;;3.42;1.77;;;23.40;99.90;;;23.33;52.11;100882.78;5051125;27;97558;-49
2023/06/19 09:46:06;;;;;;;2.50;1.50;;;23.40;99.90;;;23.37;51.46;100889.59;5042808;27;97341;-49
2023/06/19 09:48:36;;;;;;;2.73;1.83;;;23.40;99.90;;;23.29;51.26;100885.84;5051350;27;96990;-50
2023/06/19 09:51:21;;;;;;;3.03;1.77;;;23.40;99.90;;;23.40;51.09;100886.66;5050322;27;99041;-49
2023/06/19 09:53:50;;;;;;;2.35;1.95;;;23.50;99.90;;;23.43;52.27;100883.72;5050934;27;98444;-47
2023/06/19 09:56:21;;;;;;;8.55;1.65;;;23.50;99.90;;;23.52;52.41;100886.59;5059862;27;97353;-52
2023/06/19 09:58:49;;;;;;;2.47;1.55;;;23.60;99.90;;;23.52;52.36;100894.66;5048841;27;97192;-50
2023/06/19 10:01:19;;;;;;;3.40;1.45;;;23.60;99.90;;;23.45;51.40;100884.44;5059950;27;98159;-50
2023/06/19 10:03:46;;;;;;;2.80;1.60;;;23.60;99.90;;;23.55;50.99;100889.00;5019962;27;98265;-53
2023/06/19 10:06:16;;;;;;;6.82;2.15;;;23.70;99.90;;;23.47;50.48;100894.22;5060332;27;97035;-51
2023/06/19 10:08:44;;;;;;;4.03;2.03;;;23.60;99.90;;;23.57;51.62;100892.41;5051246;27;97630;-51
2023/06/19 10:11:11;;;;;;;2.03;1.50;;;23.60;99.90;;;23.53;50.20;100888.28;5056944;27;97242;-46
2023/06/19 10:13:40;;;;;;;3.00;2.00;;;23.60;99.90;;;23.63;50.25;100897.31;5056622;27;97420;-50
2023/06/19 10:16:07;;;;;;;2.42;1.85;;;23.70;99.90;;;23.65;50.88;100896.19;5058811;27;97381;-51
2023/06/19 10:18:45;;;;;;;4.43;2.15;;;23.80;99.90;;;23.67;50.76;100901.44;5060740;27;97623;-49
2023/06/19 10:21:21;;;;;;;2.95;2.13;;;23.80;99.90;;;23.78;51.33;100904.06;5055775;27;97197;-47
2023/06/19 10:23:55;;;;;;;3.60;2.00;;;23.80;99.90;;;23.79;51.58;100897.69;5048564;27;97131;-51
2023/06/19 10:26:34;;;;;;;2.55;1.60;;;23.80;99.90;;;23.70;50.10;100893.09;5058052;27;97281;-46
2023/06/19 10:29:00;;;;;;;1.85;1.63;;;23.80;99.90;;;23.64;50.39;100891.81;5044217;27;97437;-51
2023/06/19 10:31:28;;;;;;;2.97;1.83;;;23.80;99.90;;;23.65;49.32;100890.81;5034876;27;98083;-49
2023/06/19 10:33:54;;;;;;;5.50;2.00;;;23.80;99.90;;;23.72;49.93;100891.13;5043615;27;103198;-48
2023/06/19 10:36:25;;;;;;;3.22;2.05;;;23.80;99.90;;;23.82;50.02;100892.03;5036862;27;97066;-48
2023/06/19 10:38:51;;;;;;;2.95;1.92;;;23.90;99.90;;;23.87;49.13;100889.81;5047277;27;97402;-48
2023/06/19 10:41:27;;;;;;;2.17;1.58;;;24.00;99.90;;;23.96;49.30;100883.59;5046941;27;97547;-49
2023/06/19 10:44:03;;;;;;;2.42;1.80;;;24.10;99.90;;;23.95;49.03;100887.28;5033181;27;101446;-51
2023/06/19 10:46:33;;;;;;;2.97;1.98;;;24.00;99.90;;;23.89;49.15;100898.59;5046045;27;97871;-53
2023/06/19 10:49:01;;;;;;;2.22;1.60;;;24.00;99.90;;;23.99;49.41;100883.31;5052736;27;97273;-52
2023/06/19 10:51:37;;;;;;;4.35;2.20;;;24.10;99.90;;;23.97;49.83;100887.13;5046674;27;98684;-51
2023/06/19 10:54:03;;;;;;;3.58;1.83;;;24.00;99.90;;;23.90;49.98;100881.44;5030288;27;102500;-51